createdAt,value
2019-03-28T00:01:22.715Z,39.90
2019-03-28T00:04:24.617Z,32.60
2019-03-28T00:07:27.240Z,31.27
2019-03-28T00:10:29.227Z,32.27
2019-03-28T00:13:31.119Z,29.70
2019-03-28T00:16:33.110Z,38.43
2019-03-28T00:19:35.059Z,28.87
2019-03-28T00:22:55.399Z,35.27
2019-03-28T00:25:57.279Z,41.97
2019-03-28T00:28:59.230Z,43.40
2019-03-28T00:32:01.107Z,29.53
2019-03-28T00:35:05.076Z,35.17
2019-03-28T00:38:06.933Z,37.47
2019-03-28T00:41:08.870Z,37.70
2019-03-28T00:44:10.785Z,33.20
2019-03-28T00:47:12.819Z,33.57
2019-03-28T00:50:15.017Z,33.37
2019-03-28T00:53:16.995Z,36.73
2019-03-28T00:56:18.911Z,33.47
2019-03-28T00:59:20.832Z,36.50
2019-03-28T01:02:22.712Z,36.53
2019-03-28T01:05:24.609Z,30.43
2019-03-28T01:08:26.608Z,35.23
2019-03-28T01:11:28.503Z,35.53
2019-03-28T01:14:30.414Z,38.20
2019-03-28T01:17:32.382Z,37.13
2019-03-28T01:20:34.303Z,32.60
2019-03-28T01:23:36.243Z,40.53
2019-03-28T01:26:38.082Z,32.33
2019-03-28T01:29:40.068Z,32.17
2019-03-28T01:32:41.943Z,37.20
2019-03-28T01:35:43.867Z,34.20
2019-03-28T01:38:45.701Z,32.80
2019-03-28T01:41:47.629Z,35.60
2019-03-28T01:44:49.494Z,37.20
2019-03-28T01:47:51.425Z,32.67
2019-03-28T01:50:53.470Z,33.37
2019-03-28T01:53:55.402Z,33.63
2019-03-28T01:57:10.006Z,36.63
2019-03-28T02:00:01.106Z,31.13
2019-03-28T02:03:03.014Z,37.10
2019-03-28T02:06:04.939Z,39.67
2019-03-28T02:09:06.902Z,42.07
2019-03-28T02:12:08.856Z,36.23
2019-03-28T02:15:11.060Z,38.43
2019-03-28T02:18:13.011Z,39.07
2019-03-28T02:21:15.002Z,34.50
2019-03-28T02:24:16.909Z,36.23
2019-03-28T02:27:24.169Z,33.90
2019-03-28T02:30:31.125Z,34.97
2019-03-28T02:33:33.055Z,38.53
2019-03-28T02:36:35.045Z,37.77
2019-03-28T02:39:36.928Z,32.27
2019-03-28T02:42:38.807Z,31.67
2019-03-28T02:45:40.664Z,34.07
2019-03-28T02:48:42.561Z,32.20
2019-03-28T02:51:44.594Z,34.97
2019-03-28T02:54:46.505Z,38.00
2019-03-28T02:57:48.374Z,35.93
2019-03-28T03:00:50.253Z,35.17
2019-03-28T03:03:52.111Z,38.30
2019-03-28T03:06:54.079Z,35.87
2019-03-28T03:09:56.109Z,34.47
2019-03-28T03:12:58.023Z,35.53
2019-03-28T03:16:00.093Z,37.40
2019-03-28T03:19:02.020Z,38.97
2019-03-28T03:22:03.956Z,38.07
2019-03-28T03:25:06.459Z,36.83
2019-03-28T03:28:08.299Z,38.17
2019-03-28T03:31:10.252Z,37.07
2019-03-28T03:34:12.203Z,32.57
2019-03-28T03:37:14.128Z,36.50
2019-03-28T03:40:16.118Z,38.83
2019-03-28T03:43:18.058Z,37.73
2019-03-28T03:46:19.974Z,38.13
2019-03-28T03:49:21.908Z,46.27
2019-03-28T03:52:23.969Z,39.87
2019-03-28T03:55:25.922Z,37.70
2019-03-28T03:58:27.811Z,42.43
2019-03-28T04:01:29.743Z,39.23
2019-03-28T04:04:31.654Z,41.30
2019-03-28T04:07:33.496Z,38.20
2019-03-28T04:10:35.763Z,41.90
2019-03-28T04:13:37.684Z,41.63
2019-03-28T04:16:39.579Z,36.13
2019-03-28T04:19:41.512Z,43.80
2019-03-28T04:22:43.471Z,38.37
2019-03-28T04:25:45.385Z,32.97
2019-03-28T04:28:47.260Z,42.00
2019-03-28T04:31:49.224Z,41.83
2019-03-28T04:34:51.196Z,36.10
2019-03-28T04:37:53.153Z,38.10
2019-03-28T04:40:55.045Z,38.83
2019-03-28T04:43:56.942Z,38.77
2019-03-28T04:46:59.972Z,35.10
2019-03-28T04:50:01.863Z,39.63
2019-03-28T04:53:03.859Z,38.07
2019-03-28T04:56:05.778Z,33.80
2019-03-28T04:59:07.643Z,42.33
2019-03-28T05:02:09.587Z,39.80
2019-03-28T05:05:11.523Z,40.23
2019-03-28T05:08:13.450Z,36.73
2019-03-28T05:11:15.576Z,40.47
2019-03-28T05:14:17.571Z,40.83
2019-03-28T05:17:19.473Z,41.43
2019-03-28T05:20:21.428Z,40.97
2019-03-28T05:23:23.503Z,40.80
2019-03-28T05:26:25.473Z,35.70
2019-03-28T05:29:27.391Z,37.30
2019-03-28T05:32:30.300Z,39.07
2019-03-28T05:35:32.244Z,38.00
2019-03-28T05:38:34.587Z,33.60
2019-03-28T05:41:36.755Z,35.53
2019-03-28T05:44:38.698Z,33.50
2019-03-28T05:47:40.615Z,34.43
2019-03-28T05:50:42.545Z,35.67
2019-03-28T05:53:44.669Z,31.07
2019-03-28T05:56:46.582Z,29.37
2019-03-28T05:59:48.502Z,24.67
2019-03-28T06:02:50.571Z,29.10
2019-03-28T06:05:52.741Z,29.30
2019-03-28T06:08:54.659Z,29.73
2019-03-28T06:11:57.031Z,31.10
2019-03-28T06:14:59.009Z,29.33
2019-03-28T06:18:00.953Z,26.43
2019-03-28T06:21:03.987Z,26.97
2019-03-28T06:24:05.924Z,32.67
2019-03-28T06:27:07.832Z,28.47
2019-03-28T06:30:10.328Z,25.43
2019-03-28T06:33:12.315Z,26.43
2019-03-28T06:36:14.412Z,28.20
2019-03-28T06:39:16.864Z,26.47
2019-03-28T06:42:18.791Z,24.07
2019-03-28T06:45:20.803Z,27.63
2019-03-28T06:48:22.701Z,25.97
2019-03-28T06:51:24.648Z,30.80
2019-03-28T06:54:26.791Z,26.10
2019-03-28T06:57:28.725Z,22.87
2019-03-28T07:00:30.659Z,22.93
2019-03-28T07:03:32.601Z,24.77
2019-03-28T07:06:34.475Z,22.50
2019-03-28T07:09:36.440Z,24.73
2019-03-28T07:12:38.864Z,23.70
2019-03-28T07:15:40.812Z,24.20
2019-03-28T07:18:42.707Z,25.17
2019-03-28T07:21:44.653Z,21.43
2019-03-28T07:24:46.643Z,23.33
2019-03-28T07:27:48.617Z,25.47
2019-03-28T07:30:50.517Z,24.73
2019-03-28T07:33:52.476Z,25.10
2019-03-28T07:36:54.368Z,21.40
2019-03-28T07:39:56.311Z,24.57
2019-03-28T07:42:58.171Z,18.70
2019-03-28T07:46:00.180Z,18.97
2019-03-28T07:49:02.114Z,19.57
2019-03-28T07:52:04.081Z,19.97
2019-03-28T07:55:06.707Z,20.50
2019-03-28T07:58:09.192Z,18.60
2019-03-28T08:01:11.341Z,20.10
2019-03-28T08:04:13.425Z,16.43
2019-03-28T08:07:15.327Z,17.20
2019-03-28T08:10:17.296Z,15.37
2019-03-28T08:13:19.580Z,15.23
2019-03-28T08:16:21.552Z,17.53
2019-03-28T08:19:23.486Z,19.07
2019-03-28T08:22:25.421Z,14.33
2019-03-28T08:25:27.413Z,14.10
2019-03-28T08:28:29.321Z,17.40
2019-03-28T08:31:31.300Z,13.67
2019-03-28T08:34:33.240Z,14.70
2019-03-28T08:37:35.999Z,14.90
2019-03-28T08:40:41.369Z,12.27
2019-03-28T08:43:43.277Z,11.97
2019-03-28T08:46:45.210Z,10.80
2019-03-28T08:49:47.109Z,9.33
2019-03-28T08:52:49.080Z,12.07
2019-03-28T08:55:51.270Z,11.97
2019-03-28T08:58:53.234Z,11.37
2019-03-28T09:01:55.140Z,11.80
2019-03-28T09:04:57.155Z,8.23
2019-03-28T09:07:59.633Z,9.70
2019-03-28T09:11:01.606Z,10.20
2019-03-28T09:14:04.090Z,11.50
2019-03-28T09:17:06.065Z,10.90
2019-03-28T09:20:08.490Z,28.13
2019-03-28T09:23:10.414Z,2.83
2019-03-28T09:26:12.374Z,26.23
2019-03-28T09:29:14.374Z,39.80
2019-03-28T09:32:16.357Z,49.00
2019-03-28T09:35:29.252Z,31.57
2019-03-28T09:38:31.322Z,33.40
2019-03-28T09:41:33.261Z,37.33
2019-03-28T09:44:35.150Z,20.53
2019-03-28T09:47:37.121Z,9.70
2019-03-28T09:50:39.020Z,2.67
2019-03-28T09:53:41.041Z,6.60
2019-03-28T09:56:43.076Z,5.97
2019-03-28T09:59:45.079Z,5.50
2019-03-28T10:02:47.038Z,10.63
2019-03-28T10:05:49.039Z,22.27
2019-03-28T10:08:50.970Z,29.23
2019-03-28T10:11:52.922Z,32.77
2019-03-28T10:14:55.277Z,13.73
2019-03-28T10:17:57.226Z,7.40
2019-03-28T10:20:59.190Z,8.63
2019-03-28T10:24:01.111Z,13.43
2019-03-28T10:27:03.065Z,6.90
2019-03-28T10:30:07.679Z,7.30
2019-03-28T10:33:10.677Z,19.17
2019-03-28T10:36:12.636Z,11.60
2019-03-28T10:39:14.579Z,14.13
2019-03-28T10:42:16.507Z,6.90
2019-03-28T10:45:18.420Z,13.13
2019-03-28T10:48:23.378Z,23.03
2019-03-28T10:51:24.219Z,10.87
2019-03-28T10:54:26.223Z,8.93
2019-03-28T10:57:30.281Z,10.93
2019-03-28T11:00:32.422Z,9.83
2019-03-28T11:03:34.361Z,5.67
2019-03-28T11:06:36.305Z,8.50
2019-03-28T11:09:38.221Z,10.47
2019-03-28T11:12:40.193Z,13.73
2019-03-28T11:15:42.543Z,8.27
2019-03-28T11:18:44.462Z,7.93
2019-03-28T11:21:46.502Z,13.90
2019-03-28T11:24:48.441Z,10.90
2019-03-28T11:27:50.358Z,16.40
2019-03-28T11:30:52.407Z,6.37
2019-03-28T11:33:54.304Z,13.40
2019-03-28T11:36:56.394Z,18.07
2019-03-28T11:39:58.319Z,37.27
2019-03-28T11:43:00.779Z,59.83
2019-03-28T11:46:02.883Z,32.00
2019-03-28T11:49:04.883Z,13.00
2019-03-28T11:52:06.785Z,14.43
2019-03-28T11:55:08.898Z,37.97
2019-03-28T11:58:11.640Z,16.17
2019-03-28T12:01:13.993Z,21.70
2019-03-28T12:04:15.939Z,13.63
2019-03-28T12:07:17.952Z,17.77
2019-03-28T12:10:19.915Z,12.47
2019-03-28T12:13:21.843Z,13.10
2019-03-28T12:16:24.000Z,21.43
2019-03-28T12:19:26.026Z,25.03
2019-03-28T12:22:27.990Z,9.27
2019-03-28T12:25:30.000Z,8.17
2019-03-28T12:28:32.011Z,18.60
2019-03-28T12:31:33.991Z,77.60
2019-03-28T12:34:35.953Z,12.17
2019-03-28T12:37:38.985Z,36.70
2019-03-28T12:40:40.970Z,13.23
2019-03-28T12:43:42.979Z,107.53
2019-03-28T12:46:45.083Z,11.23
2019-03-28T12:49:47.087Z,16.33
2019-03-28T12:52:48.986Z,230.37
2019-03-28T12:55:50.952Z,238.20
2019-03-28T12:58:52.969Z,133.20
2019-03-28T13:01:55.246Z,55.87
2019-03-28T13:04:57.629Z,35.57
2019-03-28T13:07:59.587Z,50.27
2019-03-28T13:11:01.499Z,67.40
2019-03-28T13:14:03.398Z,18.10
2019-03-28T13:17:05.754Z,19.27
2019-03-28T13:20:09.440Z,70.63
2019-03-28T13:23:12.677Z,10.33
2019-03-28T13:26:14.592Z,8.03
2019-03-28T13:29:16.585Z,6.20
2019-03-28T13:32:18.586Z,7.07
2019-03-28T13:35:20.554Z,6.20
2019-03-28T13:38:22.547Z,37.97
2019-03-28T13:41:24.430Z,12.80
2019-03-28T13:44:26.380Z,20.77
2019-03-28T13:47:28.313Z,9.07
2019-03-28T13:50:30.280Z,9.90
2019-03-28T13:53:39.246Z,11.00
2019-03-28T13:56:38.511Z,21.53
2019-03-28T13:59:41.294Z,8.13
2019-03-28T14:02:54.870Z,10.63
2019-03-28T14:05:47.139Z,7.47
2019-03-28T14:08:49.101Z,9.23
2019-03-28T14:11:51.054Z,10.63
2019-03-28T14:14:53.224Z,9.83
2019-03-28T14:17:56.697Z,12.53
2019-03-28T14:20:58.679Z,16.97
2019-03-28T14:24:00.576Z,15.37
2019-03-28T14:27:02.517Z,13.10
2019-03-28T14:30:09.445Z,16.37
2019-03-28T14:33:13.011Z,13.80
2019-03-28T14:36:15.730Z,16.80
2019-03-28T14:39:17.662Z,14.90
2019-03-28T14:42:20.089Z,17.80
2019-03-28T14:45:22.339Z,16.27
2019-03-28T14:48:24.259Z,19.27
2019-03-28T14:51:26.280Z,15.77
2019-03-28T14:54:28.415Z,17.50
2019-03-28T14:57:31.964Z,23.53
2019-03-28T15:00:40.799Z,23.47
2019-03-28T15:03:42.729Z,20.37
2019-03-28T15:06:44.628Z,18.93
2019-03-28T15:09:46.547Z,20.03
2019-03-28T15:12:48.483Z,19.17
2019-03-28T15:15:50.483Z,16.47
2019-03-28T15:18:52.429Z,14.77
2019-03-28T15:21:54.395Z,34.37
2019-03-28T15:24:57.790Z,23.57
2019-03-28T15:28:00.108Z,21.27
2019-03-28T15:31:02.077Z,16.73
2019-03-28T15:34:03.982Z,13.60
2019-03-28T15:37:05.963Z,14.70
2019-03-28T15:40:09.120Z,19.20
2019-03-28T15:43:11.033Z,15.23
2019-03-28T15:46:16.068Z,17.43
2019-03-28T15:49:18.046Z,17.20
2019-03-28T15:52:20.081Z,16.30
2019-03-28T15:55:21.994Z,19.67
2019-03-28T15:58:24.028Z,16.73
2019-03-28T16:01:26.154Z,92.63
2019-03-28T16:04:28.077Z,105.53
2019-03-28T16:07:29.986Z,108.57
2019-03-28T16:10:31.908Z,39.33
2019-03-28T16:13:33.875Z,35.03
2019-03-28T16:16:35.847Z,16.63
2019-03-28T16:19:37.837Z,12.67
2019-03-28T16:22:39.931Z,12.40
2019-03-28T16:25:43.001Z,18.30
2019-03-28T16:28:44.956Z,24.20
2019-03-28T16:31:46.869Z,21.50
2019-03-28T16:34:48.883Z,19.07
2019-03-28T16:37:51.179Z,23.33
2019-03-28T16:40:53.691Z,23.17
2019-03-28T16:43:55.634Z,22.10
2019-03-28T16:46:57.602Z,37.40
2019-03-28T16:49:59.526Z,38.47
2019-03-28T16:53:01.512Z,20.07
2019-03-28T16:56:04.325Z,39.47
2019-03-28T16:59:06.315Z,50.40
2019-03-28T17:02:08.373Z,34.03
2019-03-28T17:05:10.360Z,42.10
2019-03-28T17:08:13.970Z,45.83
2019-03-28T17:11:16.973Z,67.60
2019-03-28T17:14:18.948Z,60.80
2019-03-28T17:17:22.386Z,37.80
2019-03-28T17:20:26.832Z,48.20
2019-03-28T17:23:28.845Z,29.03
2019-03-28T17:26:31.853Z,29.60
2019-03-28T17:29:34.660Z,25.37
2019-03-28T17:32:37.292Z,27.73
2019-03-28T17:35:40.876Z,41.97
2019-03-28T17:38:42.821Z,36.27
2019-03-28T17:41:45.127Z,36.00
2019-03-28T17:44:47.085Z,32.17
2019-03-28T17:47:50.504Z,35.93
2019-03-28T17:50:52.433Z,47.87
2019-03-28T17:53:56.155Z,51.53
2019-03-28T17:56:58.269Z,40.33
2019-03-28T18:00:00.479Z,48.03
2019-03-28T18:03:09.163Z,38.47
2019-03-28T18:06:06.644Z,33.47
2019-03-28T18:09:11.068Z,38.93
2019-03-28T18:12:14.432Z,49.87
2019-03-28T18:15:18.148Z,36.33
2019-03-28T18:18:20.257Z,36.67
2019-03-28T18:21:23.380Z,41.27
2019-03-28T18:24:25.365Z,28.23
2019-03-28T18:27:27.278Z,34.13
2019-03-28T18:30:29.219Z,40.67
2019-03-28T18:33:33.233Z,35.20
2019-03-28T18:36:36.631Z,31.33
2019-03-28T18:39:38.794Z,35.07
2019-03-28T18:42:42.710Z,37.60
2019-03-28T18:45:46.483Z,38.83
2019-03-28T18:48:48.483Z,49.67
2019-03-28T18:51:50.368Z,45.67
2019-03-28T18:54:55.507Z,54.70
2019-03-28T18:57:59.960Z,46.13
2019-03-28T19:01:05.126Z,52.20
2019-03-28T19:04:07.456Z,57.73
2019-03-28T19:07:10.003Z,60.07
2019-03-28T19:10:12.794Z,55.77
2019-03-28T19:13:16.884Z,61.10
2019-03-28T19:16:21.598Z,57.60
2019-03-28T19:19:38.349Z,66.90
2019-03-28T19:22:28.731Z,61.57
2019-03-28T19:25:30.724Z,70.87
2019-03-28T19:28:34.418Z,96.70
2019-03-28T19:31:36.397Z,132.87
2019-03-28T19:34:43.857Z,158.77
2019-03-28T19:37:45.948Z,126.60
2019-03-28T19:40:48.553Z,131.83
2019-03-28T19:43:52.343Z,126.23
2019-03-28T19:46:57.228Z,166.83
2019-03-28T19:49:59.266Z,181.40
2019-03-28T19:53:02.361Z,168.10
2019-03-28T19:56:05.788Z,62.17
2019-03-28T19:59:09.205Z,58.00
2019-03-28T20:02:14.208Z,65.47
2019-03-28T20:05:18.368Z,91.10
2019-03-28T20:08:20.369Z,81.97
2019-03-28T20:11:22.584Z,84.90
2019-03-28T20:14:24.668Z,76.80
2019-03-28T20:17:27.693Z,91.70
2019-03-28T20:20:29.661Z,104.07
2019-03-28T20:23:35.388Z,141.33
2019-03-28T20:26:36.564Z,185.90
2019-03-28T20:29:39.945Z,186.60
2019-03-28T20:32:42.769Z,250.77
2019-03-28T20:35:45.386Z,177.97
2019-03-28T20:38:53.308Z,101.93
2019-03-28T20:41:51.242Z,157.97
2019-03-28T20:44:55.001Z,147.37
2019-03-28T20:47:56.923Z,79.70
2019-03-28T20:51:03.431Z,63.77
2019-03-28T20:54:07.744Z,61.40
2019-03-28T20:57:09.984Z,59.03
2019-03-28T21:00:13.248Z,57.93
2019-03-28T21:03:17.013Z,71.87
2019-03-28T21:06:20.987Z,62.87
2019-03-28T21:09:23.037Z,61.97
2019-03-28T21:12:24.951Z,73.13
2019-03-28T21:15:26.928Z,92.80
2019-03-28T21:18:28.831Z,121.50
2019-03-28T21:21:31.020Z,134.90
2019-03-28T21:24:33.248Z,144.50
2019-03-28T21:27:35.230Z,116.57
2019-03-28T21:30:47.202Z,134.50
2019-03-28T21:33:41.010Z,159.10
2019-03-28T21:36:43.346Z,165.27
2019-03-28T21:39:45.333Z,159.43
2019-03-28T21:42:47.249Z,168.43
2019-03-28T21:45:49.188Z,157.20
2019-03-28T21:48:51.109Z,155.23
2019-03-28T21:51:53.093Z,123.77
2019-03-28T21:54:54.994Z,133.70
2019-03-28T21:57:56.930Z,110.93
2019-03-28T22:01:00.682Z,115.63
2019-03-28T22:04:02.692Z,108.87
2019-03-28T22:07:05.933Z,104.20
2019-03-28T22:10:09.253Z,83.27
2019-03-28T22:13:12.344Z,80.20
2019-03-28T22:16:14.467Z,87.47
2019-03-28T22:19:16.366Z,88.10
2019-03-28T22:22:18.328Z,83.07
2019-03-28T22:25:20.634Z,93.00
2019-03-28T22:28:22.573Z,93.47
2019-03-28T22:31:24.508Z,89.47
2019-03-28T22:34:26.494Z,90.20
2019-03-28T22:37:28.886Z,85.00
2019-03-28T22:40:31.249Z,89.87
2019-03-28T22:43:33.298Z,83.90
2019-03-28T22:46:39.169Z,89.93
2019-03-28T22:49:39.115Z,85.30
2019-03-28T22:52:41.052Z,84.23
2019-03-28T22:55:42.934Z,79.37
2019-03-28T22:58:44.936Z,86.60
2019-03-28T23:01:46.835Z,79.83
2019-03-28T23:04:48.768Z,81.10
2019-03-28T23:07:50.794Z,74.03
2019-03-28T23:10:52.768Z,83.60
2019-03-28T23:13:54.675Z,71.33
2019-03-28T23:16:56.587Z,75.00
2019-03-28T23:19:58.522Z,81.23
2019-03-28T23:23:00.449Z,80.80
2019-03-28T23:26:02.449Z,85.60
2019-03-28T23:29:04.446Z,84.23
2019-03-28T23:32:06.367Z,91.07
2019-03-28T23:35:08.506Z,98.80
2019-03-28T23:38:10.473Z,93.17
2019-03-28T23:41:12.456Z,98.20
2019-03-28T23:44:14.318Z,111.80
2019-03-28T23:47:16.258Z,104.17
2019-03-28T23:50:18.137Z,116.10
2019-03-28T23:53:20.076Z,107.13
2019-03-28T23:56:22.008Z,107.13
2019-03-28T23:59:23.943Z,104.13
